Time;durP1;ratioP1;P1;durP2;ratioP2;P2;SDS_P1;SDS_P2;PMS_P1;PMS_P2;Temp;Humidity;BMP_temperature;BMP_pressure;BME280_temperature;BME280_humidity;BME280_pressure;Samples;Min_cycle;Max_cycle;Signal;HPM_P1;HPM_P2
2020/12/06 00:00:08;;;;;;;6.82;3.40;;;;;;;;;;5113504;28;20027;-18
2020/12/06 00:02:34;;;;;;;4.05;2.10;;;;;;;;;;5113442;28;20402;-17
2020/12/06 00:04:59;;;;;;;3.03;2.35;;;;;;;;;;5113691;28;20036;-17
2020/12/06 00:07:24;;;;;;;6.55;2.88;;;;;;;;;;5111583;28;20031;-17
2020/12/06 00:09:50;;;;;;;6.05;2.67;;;;;;;;;;5095106;28;20023;-17
2020/12/06 00:12:15;;;;;;;5.20;2.55;;;;;;;;;;5113117;28;20019;-17
2020/12/06 00:14:41;;;;;;;6.32;2.70;;;;;;;;;;5113558;28;20040;-18
2020/12/06 00:17:06;;;;;;;5.65;2.30;;;;;;;;;;5113454;28;20012;-17
2020/12/06 00:19:31;;;;;;;5.80;2.53;;;;;;;;;;5111953;28;20477;-18
2020/12/06 00:21:57;;;;;;;2.50;1.90;;;;;;;;;;5111874;28;20028;-16
2020/12/06 00:24:23;;;;;;;4.78;2.50;;;;;;;;;;5113090;28;20039;-17
2020/12/06 00:26:48;;;;;;;4.97;3.08;;;;;;;;;;5111706;28;20482;-17
2020/12/06 00:29:13;;;;;;;7.68;3.15;;;;;;;;;;5111667;28;20028;-18
2020/12/06 00:31:39;;;;;;;3.95;2.03;;;;;;;;;;5112066;28;20028;-17
2020/12/06 00:34:04;;;;;;;6.57;2.63;;;;;;;;;;5111465;28;20039;-16
2020/12/06 00:36:30;;;;;;;7.82;2.20;;;;;;;;;;5094770;28;20012;-18
2020/12/06 00:38:55;;;;;;;3.40;2.83;;;;;;;;;;5113156;28;20027;-17
2020/12/06 00:41:22;;;;;;;4.30;2.35;;;;;;;;;;5111507;28;20513;-18
2020/12/06 00:43:48;;;;;;;5.85;2.88;;;;;;;;;;5112888;28;20389;-19
2020/12/06 00:46:19;;;;;;;3.88;2.33;;;;;;;;;;5112816;28;20016;-17
2020/12/06 00:48:44;;;;;;;7.82;3.10;;;;;;;;;;5112733;28;20028;-18
2020/12/06 00:51:10;;;;;;;6.28;3.08;;;;;;;;;;5111264;28;20036;-18
2020/12/06 00:53:39;;;;;;;12.05;3.67;;;;;;;;;;5111391;28;20055;-17
2020/12/06 00:56:05;;;;;;;4.57;2.45;;;;;;;;;;5112644;28;20065;-17
2020/12/06 00:58:34;;;;;;;5.38;2.97;;;;;;;;;;5112699;28;20053;-19
2020/12/06 01:00:59;;;;;;;5.70;3.17;;;;;;;;;;5114570;28;20104;-17
2020/12/06 01:03:25;;;;;;;4.93;2.50;;;;;;;;;;5116897;28;20036;-17
2020/12/06 01:05:50;;;;;;;2.80;2.17;;;;;;;;;;5117228;28;20016;-17
2020/12/06 01:08:15;;;;;;;6.63;2.83;;;;;;;;;;5116704;28;20028;-18
2020/12/06 01:10:41;;;;;;;5.13;3.20;;;;;;;;;;5116741;28;20039;-17
2020/12/06 01:13:06;;;;;;;11.25;3.05;;;;;;;;;;5116723;28;20027;-18
2020/12/06 01:15:31;;;;;;;9.32;2.95;;;;;;;;;;5115365;28;20470;-17
2020/12/06 01:17:57;;;;;;;4.80;2.20;;;;;;;;;;5116689;27;20023;-17
2020/12/06 01:20:22;;;;;;;4.63;2.78;;;;;;;;;;5116754;28;20027;-17
2020/12/06 01:22:48;;;;;;;5.28;2.75;;;;;;;;;;5116732;28;20499;-17
2020/12/06 01:25:13;;;;;;;4.35;2.42;;;;;;;;;;5116536;28;20020;-16
2020/12/06 01:27:39;;;;;;;4.32;2.85;;;;;;;;;;5116490;28;20489;-16
2020/12/06 01:30:05;;;;;;;8.70;3.05;;;;;;;;;;5116683;28;20044;-17
2020/12/06 01:32:32;;;;;;;5.07;3.10;;;;;;;;;;5116290;28;20032;-17
2020/12/06 01:34:58;;;;;;;4.43;2.95;;;;;;;;;;5116265;28;20070;-16
2020/12/06 01:37:23;;;;;;;4.50;2.42;;;;;;;;;;5116175;28;20097;-17
2020/12/06 01:39:49;;;;;;;4.47;2.70;;;;;;;;;;5115033;28;20427;-17
2020/12/06 01:42:14;;;;;;;8.45;2.85;;;;;;;;;;5097889;28;20031;-17
2020/12/06 01:44:39;;;;;;;5.22;2.42;;;;;;;;;;5116115;28;20026;-18
2020/12/06 01:47:05;;;;;;;6.88;2.95;;;;;;;;;;5116055;28;20036;-17
2020/12/06 01:49:36;;;;;;;5.07;2.80;;;;;;;;;;5115880;28;20078;-17
2020/12/06 01:52:03;;;;;;;4.10;2.47;;;;;;;;;;5115955;28;20028;-17
2020/12/06 01:54:29;;;;;;;4.20;2.72;;;;;;;;;;5115885;28;20482;-18
2020/12/06 01:56:54;;;;;;;3.83;2.40;;;;;;;;;;5115813;27;20076;-18
2020/12/06 01:59:20;;;;;;;9.88;2.85;;;;;;;;;;5115778;28;20378;-18
2020/12/06 02:01:56;;;;;;;4.78;3.42;;;;;;;;;;5116143;28;20022;-17
2020/12/06 02:04:23;;;;;;;5.03;3.03;;;;;;;;;;5115818;28;20542;-16
2020/12/06 02:06:48;;;;;;;3.13;1.95;;;;;;;;;;5115701;28;20483;-17
2020/12/06 02:09:14;;;;;;;12.05;6.55;;;;;;;;;;5114237;28;20118;-17
2020/12/06 02:11:39;;;;;;;14.13;7.43;;;;;;;;;;5115628;28;20020;-17
2020/12/06 02:14:04;;;;;;;7.57;3.20;;;;;;;;;;5115300;28;20494;-18
2020/12/06 02:16:30;;;;;;;5.35;2.67;;;;;;;;;;5115504;27;20111;-17
2020/12/06 02:18:55;;;;;;;16.33;6.07;;;;;;;;;;5114164;28;20035;-17
2020/12/06 02:21:20;;;;;;;4.60;2.90;;;;;;;;;;5115285;28;20024;-17
2020/12/06 02:23:46;;;;;;;11.10;5.50;;;;;;;;;;5114427;28;20024;-17
2020/12/06 02:26:11;;;;;;;4.22;2.45;;;;;;;;;;5115292;28;20069;-17
2020/12/06 02:28:37;;;;;;;10.65;4.20;;;;;;;;;;5113924;28;20038;-17
2020/12/06 02:31:02;;;;;;;6.00;2.53;;;;;;;;;;5115288;28;20112;-16
2020/12/06 02:33:28;;;;;;;4.63;2.70;;;;;;;;;;5115102;28;20028;-18
2020/12/06 02:35:53;;;;;;;9.13;4.20;;;;;;;;;;5113812;28;20506;-17
2020/12/06 02:38:19;;;;;;;4.78;2.40;;;;;;;;;;5115024;27;20430;-17
2020/12/06 02:40:44;;;;;;;9.23;3.80;;;;;;;;;;5115292;28;20020;-17
2020/12/06 02:43:10;;;;;;;6.47;3.75;;;;;;;;;;5115006;28;20028;-18
2020/12/06 02:45:35;;;;;;;4.90;3.05;;;;;;;;;;5114928;28;20026;-17
2020/12/06 02:48:01;;;;;;;6.35;3.55;;;;;;;;;;5113545;28;20028;-16
2020/12/06 02:50:26;;;;;;;6.45;2.40;;;;;;;;;;5113439;28;20101;-18
2020/12/06 02:52:57;;;;;;;7.03;2.75;;;;;;;;;;5114817;28;20497;-17
2020/12/06 02:55:25;;;;;;;5.78;2.42;;;;;;;;;;5114906;28;20046;-17
2020/12/06 02:57:51;;;;;;;9.00;3.22;;;;;;;;;;5114961;28;20359;-17
2020/12/06 03:00:16;;;;;;;7.18;3.42;;;;;;;;;;5114700;27;20039;-16
2020/12/06 03:02:42;;;;;;;12.85;3.85;;;;;;;;;;5114654;28;20050;-18
2020/12/06 03:05:07;;;;;;;8.02;2.80;;;;;;;;;;5114577;28;20392;-18
2020/12/06 03:07:32;;;;;;;3.88;2.40;;;;;;;;;;5114808;28;20022;-18
2020/12/06 03:09:58;;;;;;;6.30;3.28;;;;;;;;;;5114680;27;20059;-17
2020/12/06 03:12:23;;;;;;;7.10;3.10;;;;;;;;;;5113243;28;20360;-17
2020/12/06 03:14:49;;;;;;;5.38;3.38;;;;;;;;;;5114645;28;20039;-17
2020/12/06 03:17:14;;;;;;;6.55;3.42;;;;;;;;;;5114215;28;20382;-17
2020/12/06 03:19:40;;;;;;;4.85;3.35;;;;;;;;;;5114323;28;20031;-17
2020/12/06 03:22:05;;;;;;;5.80;3.55;;;;;;;;;;5114555;28;20024;-20
2020/12/06 03:24:30;;;;;;;8.68;5.20;;;;;;;;;;5112926;28;20504;-17
2020/12/06 03:26:56;;;;;;;8.38;3.50;;;;;;;;;;5113205;28;20026;-18
2020/12/06 03:29:21;;;;;;;7.80;2.72;;;;;;;;;;5114036;28;20530;-17
2020/12/06 03:31:47;;;;;;;6.55;3.72;;;;;;;;;;5114318;28;20039;-18
2020/12/06 03:34:12;;;;;;;6.72;3.22;;;;;;;;;;5113785;28;20039;-17
2020/12/06 03:36:37;;;;;;;8.38;3.95;;;;;;;;;;5112786;28;20030;-17
2020/12/06 03:39:03;;;;;;;13.30;6.35;;;;;;;;;;5114112;28;20027;-17
2020/12/06 03:41:28;;;;;;;6.15;2.88;;;;;;;;;;5113831;28;20467;-23
2020/12/06 03:43:54;;;;;;;9.77;3.80;;;;;;;;;;5113825;28;20032;-17
2020/12/06 03:46:19;;;;;;;5.50;3.78;;;;;;;;;;5113875;28;20135;-16
2020/12/06 03:48:44;;;;;;;7.07;4.25;;;;;;;;;;5113725;28;20023;-16
2020/12/06 03:51:10;;;;;;;7.35;3.58;;;;;;;;;;5113461;28;20047;-17
2020/12/06 03:53:35;;;;;;;19.55;7.13;;;;;;;;;;5112339;28;20031;-17
2020/12/06 03:56:00;;;;;;;6.13;3.63;;;;;;;;;;5113933;28;20122;-17
2020/12/06 03:58:26;;;;;;;9.50;3.70;;;;;;;;;;5112219;28;20175;-17
2020/12/06 04:00:51;;;;;;;14.43;6.38;;;;;;;;;;5113492;28;20106;-17
2020/12/06 04:03:17;;;;;;;6.88;3.03;;;;;;;;;;5113450;28;20054;-17
2020/12/06 04:05:42;;;;;;;9.52;4.72;;;;;;;;;;5113540;28;20094;-17
2020/12/06 04:08:07;;;;;;;7.28;3.70;;;;;;;;;;5113230;28;20138;-18
2020/12/06 04:10:33;;;;;;;10.48;5.90;;;;;;;;;;5113531;28;20019;-18
2020/12/06 04:12:58;;;;;;;6.55;3.47;;;;;;;;;;5113292;28;20490;-18
2020/12/06 04:15:24;;;;;;;4.50;2.75;;;;;;;;;;5111828;28;20127;-17
2020/12/06 04:17:49;;;;;;;5.40;3.40;;;;;;;;;;5112324;28;20076;-17
2020/12/06 04:20:14;;;;;;;3.88;2.80;;;;;;;;;;5113085;28;20023;-18
2020/12/06 04:22:40;;;;;;;5.53;3.35;;;;;;;;;;5111942;28;20024;-18
2020/12/06 04:25:05;;;;;;;4.95;3.30;;;;;;;;;;5113180;28;20020;-18
2020/12/06 04:27:30;;;;;;;4.47;2.80;;;;;;;;;;5112941;28;20024;-17
2020/12/06 04:29:56;;;;;;;6.68;3.65;;;;;;;;;;5113347;28;20024;-16
2020/12/06 04:32:21;;;;;;;5.63;3.08;;;;;;;;;;5112581;28;20466;-17
2020/12/06 04:34:47;;;;;;;6.07;3.88;;;;;;;;;;5111393;28;20058;-17
2020/12/06 04:37:12;;;;;;;7.45;3.60;;;;;;;;;;5112992;28;20028;-18
2020/12/06 04:39:38;;;;;;;4.15;2.60;;;;;;;;;;5113211;28;20108;-17
2020/12/06 04:42:04;;;;;;;3.90;2.30;;;;;;;;;;5113110;28;20035;-17
2020/12/06 04:44:29;;;;;;;5.25;3.63;;;;;;;;;;5112712;28;20576;-18
2020/12/06 04:47:00;;;;;;;3.53;2.65;;;;;;;;;;5112886;28;20478;-17
2020/12/06 04:49:44;;;;;;;3.92;2.35;;;;;;;;;;5111376;28;20082;-18
2020/12/06 04:52:36;;;;;;;6.82;3.50;;;;;;;;;;5112873;28;20031;-18
2020/12/06 04:55:02;;;;;;;7.35;3.72;;;;;;;;;;5109640;28;20052;-17
2020/12/06 04:57:28;;;;;;;6.15;2.90;;;;;;;;;;5111421;28;20016;-17
2020/12/06 05:00:00;;;;;;;11.57;4.95;;;;;;;;;;5112717;28;20066;-18
2020/12/06 05:02:27;;;;;;;4.45;2.78;;;;;;;;;;5111711;28;20026;-17
2020/12/06 05:04:56;;;;;;;6.13;3.20;;;;;;;;;;5112912;28;20024;-18
2020/12/06 05:07:22;;;;;;;6.25;2.42;;;;;;;;;;5112541;28;20027;-18
2020/12/06 05:09:49;;;;;;;5.20;2.90;;;;;;;;;;5112678;28;20024;-17
2020/12/06 05:12:15;;;;;;;4.47;2.83;;;;;;;;;;5112491;28;20059;-17
2020/12/06 05:14:40;;;;;;;5.68;2.17;;;;;;;;;;5112466;28;20077;-18
2020/12/06 05:17:06;;;;;;;6.90;2.75;;;;;;;;;;5111186;28;20036;-18
2020/12/06 05:19:32;;;;;;;3.75;1.92;;;;;;;;;;5112720;28;20022;-17
2020/12/06 05:21:57;;;;;;;6.70;3.50;;;;;;;;;;5112501;28;20051;-17
2020/12/06 05:24:22;;;;;;;6.45;2.53;;;;;;;;;;5112412;28;20015;-18
2020/12/06 05:26:49;;;;;;;3.15;2.65;;;;;;;;;;5112424;28;20032;-15
2020/12/06 05:29:14;;;;;;;4.53;3.00;;;;;;;;;;5111089;28;20023;-17
2020/12/06 05:31:40;;;;;;;8.27;4.03;;;;;;;;;;5112384;28;20108;-18
2020/12/06 05:34:05;;;;;;;5.63;2.45;;;;;;;;;;5112339;28;20458;-17
2020/12/06 05:36:31;;;;;;;10.45;3.53;;;;;;;;;;5112317;28;20032;-17
2020/12/06 05:38:56;;;;;;;4.47;3.00;;;;;;;;;;5112352;28;20026;-18
2020/12/06 05:41:22;;;;;;;3.63;2.50;;;;;;;;;;5112195;28;20032;-17
2020/12/06 05:43:47;;;;;;;9.50;5.30;;;;;;;;;;5112617;28;20107;-18
2020/12/06 05:46:14;;;;;;;2.95;2.05;;;;;;;;;;5112107;28;20028;-17
2020/12/06 05:48:40;;;;;;;2.83;2.05;;;;;;;;;;5114902;28;20481;-18
2020/12/06 05:51:05;;;;;;;7.05;3.13;;;;;;;;;;5115899;28;20122;-19
2020/12/06 05:53:31;;;;;;;18.58;9.50;;;;;;;;;;5115924;28;20039;-17
2020/12/06 05:56:15;;;;;;;32.63;12.60;;;;;;;;;;5116157;28;20439;-17
2020/12/06 05:58:42;;;;;;;5.75;2.50;;;;;;;;;;5115912;28;20084;-17
2020/12/06 06:01:08;;;;;;;4.38;2.20;;;;;;;;;;5115838;28;20454;-18
2020/12/06 06:03:34;;;;;;;7.57;2.75;;;;;;;;;;5114527;28;20038;-17
2020/12/06 06:06:01;;;;;;;6.65;3.67;;;;;;;;;;5115785;28;20024;-17
2020/12/06 06:08:27;;;;;;;3.53;2.20;;;;;;;;;;5113847;28;20024;-17
2020/12/06 06:11:03;;;;;;;2.47;2.22;;;;;;;;;;5114040;28;20028;-17
2020/12/06 06:13:30;;;;;;;7.10;3.58;;;;;;;;;;5115491;28;20080;-18
2020/12/06 06:15:55;;;;;;;3.53;2.88;;;;;;;;;;5115671;28;20359;-17
2020/12/06 06:18:21;;;;;;;9.15;2.47;;;;;;;;;;5114909;28;20076;-19
2020/12/06 06:20:46;;;;;;;6.00;2.30;;;;;;;;;;5115702;28;20044;-18
2020/12/06 06:23:12;;;;;;;5.80;3.00;;;;;;;;;;5113760;28;20419;-18
2020/12/06 06:25:38;;;;;;;5.68;3.00;;;;;;;;;;5115204;28;20024;-19
2020/12/06 06:28:03;;;;;;;5.32;2.70;;;;;;;;;;5115233;28;20088;-17
2020/12/06 06:30:29;;;;;;;8.57;2.95;;;;;;;;;;5113811;28;20019;-18
2020/12/06 06:32:55;;;;;;;3.13;2.22;;;;;;;;;;5115500;28;20386;-18
2020/12/06 06:35:20;;;;;;;6.47;3.17;;;;;;;;;;5114960;28;20146;-19
2020/12/06 06:37:46;;;;;;;4.38;1.83;;;;;;;;;;5115430;28;20035;-19
2020/12/06 06:40:11;;;;;;;3.05;1.58;;;;;;;;;;5113817;28;20019;-19
2020/12/06 06:42:37;;;;;;;1.70;1.40;;;;;;;;;;5114939;28;20027;-18
2020/12/06 06:45:10;;;;;;;2.88;1.50;;;;;;;;;;5114929;28;20072;-19
2020/12/06 06:47:36;;;;;;;1.30;1.00;;;;;;;;;;5114152;28;20374;-19
2020/12/06 06:50:02;;;;;;;2.85;1.88;;;;;;;;;;5113320;28;20504;-19
2020/12/06 06:52:28;;;;;;;3.83;1.67;;;;;;;;;;5113493;28;20031;-19
2020/12/06 06:54:56;;;;;;;3.72;2.38;;;;;;;;;;5115008;28;20505;-18
2020/12/06 06:57:22;;;;;;;2.70;1.25;;;;;;;;;;5113896;28;20031;-20
2020/12/06 06:59:48;;;;;;;2.85;1.60;;;;;;;;;;5114680;27;20019;-19
2020/12/06 07:02:40;;;;;;;5.32;1.30;;;;;;;;;;5113278;28;20085;-20
2020/12/06 07:05:07;;;;;;;7.32;1.20;;;;;;;;;;5110586;28;20455;-21
2020/12/06 07:07:58;;;;;;;3.72;1.15;;;;;;;;;;5114450;28;20023;-20
2020/12/06 07:10:25;;;;;;;2.13;1.17;;;;;;;;;;5110501;28;20036;-21
2020/12/06 07:12:52;;;;;;;1.77;1.10;;;;;;;;;;5113140;28;20023;-21
2020/12/06 07:15:19;;;;;;;2.40;1.05;;;;;;;;;;5114240;28;20100;-21
2020/12/06 07:17:45;;;;;;;2.42;1.02;;;;;;;;;;5114374;28;20020;-21
2020/12/06 07:20:12;;;;;;;1.17;0.90;;;;;;;;;;5112903;28;20065;-21
2020/12/06 07:22:38;;;;;;;1.00;0.85;;;;;;;;;;5114056;28;20020;-20
2020/12/06 07:25:04;;;;;;;2.17;0.93;;;;;;;;;;5114098;28;20028;-20
2020/12/06 07:27:29;;;;;;;6.28;1.05;;;;;;;;;;5114220;28;20049;-20
2020/12/06 07:29:55;;;;;;;1.88;0.80;;;;;;;;;;5113200;28;20055;-21
2020/12/06 07:32:20;;;;;;;1.48;0.80;;;;;;;;;;5114133;28;20016;-20
2020/12/06 07:34:47;;;;;;;2.13;0.98;;;;;;;;;;5114095;28;20474;-20
2020/12/06 07:37:13;;;;;;;1.45;0.90;;;;;;;;;;5114074;28;20035;-19
2020/12/06 07:39:45;;;;;;;1.42;1.05;;;;;;;;;;5114179;28;20036;-20
2020/12/06 07:42:16;;;;;;;1.50;0.68;;;;;;;;;;5113893;28;20040;-19
2020/12/06 07:44:46;;;;;;;1.80;1.27;;;;;;;;;;5113922;28;20448;-20
2020/12/06 07:47:12;;;;;;;2.70;0.88;;;;;;;;;;5112717;28;20015;-20
2020/12/06 07:49:46;;;;;;;1.70;1.30;;;;;;;;;;5112437;28;20485;-20
2020/12/06 07:52:16;;;;;;;0.73;0.73;;;;;;;;;;5113203;28;20089;-21
2020/12/06 07:54:50;;;;;;;1.92;1.15;;;;;;;;;;4754216;28;10000251;-20
2020/12/06 07:57:17;;;;;;;2.92;1.80;;;;;;;;;;5109928;28;20072;-20
2020/12/06 07:59:44;;;;;;;2.97;2.78;;;;;;;;;;5110061;28;20056;-21
2020/12/06 08:02:10;;;;;;;7.57;4.22;;;;;;;;;;5108673;28;20338;-21
2020/12/06 08:04:36;;;;;;;4.65;3.45;;;;;;;;;;5109305;27;20516;-22
2020/12/06 08:07:11;;;;;;;4.97;1.88;;;;;;;;;;5109460;28;20059;-21
2020/12/06 08:09:38;;;;;;;1.00;0.73;;;;;;;;;;5108014;28;20081;-21
2020/12/06 08:12:05;;;;;;;1.95;0.80;;;;;;;;;;5109435;28;20045;-20
2020/12/06 08:14:31;;;;;;;0.80;0.60;;;;;;;;;;5108016;28;20038;-19
2020/12/06 08:17:00;;;;;;;1.75;1.08;;;;;;;;;;5108963;28;20023;-21
2020/12/06 08:19:26;;;;;;;3.33;0.90;;;;;;;;;;5107872;28;20159;-20
2020/12/06 08:21:57;;;;;;;0.75;0.75;;;;;;;;;;5107364;28;20026;-21
2020/12/06 08:24:23;;;;;;;2.25;1.08;;;;;;;;;;5109681;28;20050;-20
2020/12/06 08:26:49;;;;;;;1.80;1.63;;;;;;;;;;5109490;28;20028;-20
2020/12/06 08:29:16;;;;;;;2.05;1.85;;;;;;;;;;5107884;28;20020;-20
2020/12/06 08:31:42;;;;;;;4.70;1.80;;;;;;;;;;5109596;28;20053;-22
2020/12/06 08:34:08;;;;;;;1.20;0.88;;;;;;;;;;5108790;28;20177;-20
2020/12/06 08:36:34;;;;;;;0.80;0.60;;;;;;;;;;5107744;28;20041;-21
2020/12/06 08:38:59;;;;;;;0.82;0.80;;;;;;;;;;5109140;28;20031;-20
2020/12/06 08:41:25;;;;;;;1.48;0.88;;;;;;;;;;5109687;28;20373;-19
2020/12/06 08:43:53;;;;;;;0.88;0.60;;;;;;;;;;5107894;28;20482;-19
2020/12/06 08:46:20;;;;;;;1.00;0.80;;;;;;;;;;5109192;28;20031;-20
2020/12/06 08:48:46;;;;;;;1.35;1.00;;;;;;;;;;5107838;28;20458;-20
2020/12/06 08:51:22;;;;;;;1.95;0.80;;;;;;;;;;5107411;28;20061;-21
2020/12/06 08:53:48;;;;;;;2.20;0.88;;;;;;;;;;5104062;28;20470;-20
2020/12/06 08:56:43;;;;;;;1.15;0.63;;;;;;;;;;5088747;28;20028;-20
2020/12/06 08:59:09;;;;;;;1.60;0.57;;;;;;;;;;5086041;28;20039;-20
2020/12/06 09:01:47;;;;;;;271.48;123.15;;;;;;;;;;5108856;28;20019;-20
2020/12/06 09:04:13;;;;;;;3.33;1.77;;;;;;;;;;5109006;28;20050;-20
2020/12/06 09:06:38;;;;;;;1.10;1.02;;;;;;;;;;5108823;28;20662;-19
2020/12/06 09:09:04;;;;;;;0.60;0.60;;;;;;;;;;5108616;28;20027;-20
2020/12/06 09:11:30;;;;;;;4.72;2.30;;;;;;;;;;5107321;28;20019;-20
2020/12/06 09:13:55;;;;;;;1.17;1.08;;;;;;;;;;5108834;28;20036;-21
2020/12/06 09:16:21;;;;;;;1.40;0.60;;;;;;;;;;5107130;28;20053;-19
2020/12/06 09:18:46;;;;;;;1.25;1.02;;;;;;;;;;5109187;28;20023;-21
2020/12/06 09:21:12;;;;;;;0.60;0.60;;;;;;;;;;5109283;28;20019;-20
2020/12/06 09:23:37;;;;;;;1.38;1.23;;;;;;;;;;5113325;28;20288;-20
2020/12/06 09:26:04;;;;;;;3.80;1.30;;;;;;;;;;5113161;28;20466;-19
2020/12/06 09:28:30;;;;;;;3.33;1.85;;;;;;;;;;5112630;28;20040;-21
2020/12/06 09:30:56;;;;;;;2.40;1.00;;;;;;;;;;5111920;28;20020;-21
2020/12/06 09:33:21;;;;;;;1.83;1.73;;;;;;;;;;5112556;28;20043;-20
2020/12/06 09:35:48;;;;;;;1.65;1.55;;;;;;;;;;5112811;28;20544;-20
2020/12/06 09:38:13;;;;;;;1.42;1.20;;;;;;;;;;5093247;28;20082;-20
2020/12/06 09:40:39;;;;;;;5.53;2.17;;;;;;;;;;5099844;28;20066;-18
2020/12/06 09:43:04;;;;;;;2.05;1.42;;;;;;;;;;5093153;28;20065;-20
2020/12/06 09:45:30;;;;;;;1.23;1.08;;;;;;;;;;5090491;28;20028;-19
2020/12/06 09:47:56;;;;;;;0.63;0.60;;;;;;;;;;5106313;28;20538;-19
2020/12/06 09:50:21;;;;;;;0.80;0.63;;;;;;;;;;5112158;28;20043;-19
2020/12/06 09:52:47;;;;;;;3.83;0.85;;;;;;;;;;5112156;28;20024;-18
2020/12/06 09:55:12;;;;;;;1.40;0.60;;;;;;;;;;5092229;28;20081;-19
2020/12/06 09:57:37;;;;;;;2.00;0.73;;;;;;;;;;5091484;28;20036;-18
2020/12/06 10:00:06;;;;;;;0.75;0.70;;;;;;;;;;5091638;28;20024;-18
2020/12/06 10:02:36;;;;;;;1.63;1.30;;;;;;;;;;5111985;28;20082;-22
2020/12/06 10:05:02;;;;;;;1.23;0.85;;;;;;;;;;5110346;28;20473;-19
2020/12/06 10:07:27;;;;;;;2.97;0.75;;;;;;;;;;5111857;27;20015;-21
2020/12/06 10:09:53;;;;;;;2.55;1.13;;;;;;;;;;5111597;28;20035;-20
2020/12/06 10:12:18;;;;;;;1.13;0.93;;;;;;;;;;5110683;28;20051;-19
2020/12/06 10:14:44;;;;;;;1.63;0.90;;;;;;;;;;5112055;28;20046;-21
2020/12/06 10:17:09;;;;;;;3.00;1.92;;;;;;;;;;5111618;28;20012;-21
2020/12/06 10:19:35;;;;;;;2.10;1.00;;;;;;;;;;5101799;28;20028;-21
2020/12/06 10:22:00;;;;;;;1.73;1.55;;;;;;;;;;5091639;28;20421;-18
2020/12/06 10:24:26;;;;;;;10.05;1.00;;;;;;;;;;5091379;28;20060;-20
2020/12/06 10:26:56;;;;;;;1.58;0.68;;;;;;;;;;5091446;28;20052;-20
2020/12/06 10:29:21;;;;;;;1.20;0.82;;;;;;;;;;5091767;28;20039;-21
2020/12/06 10:31:53;;;;;;;1.05;0.70;;;;;;;;;;5091862;28;20366;-19
2020/12/06 10:34:20;;;;;;;1.35;1.10;;;;;;;;;;5089237;28;20032;-19
2020/12/06 10:36:52;;;;;;;1.35;0.80;;;;;;;;;;5091518;28;20047;-21
2020/12/06 10:39:18;;;;;;;2.38;0.98;;;;;;;;;;5090137;28;20068;-19
2020/12/06 10:41:46;;;;;;;0.65;0.65;;;;;;;;;;5091456;28;20075;-20
2020/12/06 10:44:11;;;;;;;0.80;0.80;;;;;;;;;;5090955;28;20135;-19
2020/12/06 10:46:37;;;;;;;1.17;1.02;;;;;;;;;;5090529;28;20107;-20
2020/12/06 10:49:03;;;;;;;3.13;1.25;;;;;;;;;;5098899;28;20019;-19
2020/12/06 10:51:28;;;;;;;1.60;0.90;;;;;;;;;;5111347;28;20767;-21
2020/12/06 10:53:54;;;;;;;1.25;0.95;;;;;;;;;;5105554;28;20078;-19
2020/12/06 10:56:19;;;;;;;2.53;1.02;;;;;;;;;;5094398;28;20036;-19
2020/12/06 10:58:45;;;;;;;0.98;0.88;;;;;;;;;;5090973;28;20038;-19
2020/12/06 11:01:11;;;;;;;1.13;0.93;;;;;;;;;;5090819;28;20023;-21
2020/12/06 11:03:37;;;;;;;1.20;1.10;;;;;;;;;;5090923;28;20028;-21
2020/12/06 11:06:02;;;;;;;1.30;1.20;;;;;;;;;;5089024;28;20507;-22
2020/12/06 11:08:28;;;;;;;4.32;1.85;;;;;;;;;;5090578;28;20040;-20
2020/12/06 11:10:53;;;;;;;1.50;0.95;;;;;;;;;;5088511;28;20028;-21
2020/12/06 11:13:18;;;;;;;1.85;1.33;;;;;;;;;;5089890;28;20047;-21
2020/12/06 11:15:44;;;;;;;1.35;0.80;;;;;;;;;;5090292;28;20028;-20
2020/12/06 11:18:09;;;;;;;1.42;0.80;;;;;;;;;;5088804;28;20374;-22
2020/12/06 11:20:35;;;;;;;2.50;1.63;;;;;;;;;;5090113;28;20481;-20
2020/12/06 11:23:01;;;;;;;1.65;1.27;;;;;;;;;;5090351;28;20032;-20
2020/12/06 11:25:26;;;;;;;3.65;1.30;;;;;;;;;;5090139;28;20035;-20
2020/12/06 11:27:51;;;;;;;0.75;0.52;;;;;;;;;;5083558;28;20031;-21
2020/12/06 11:30:17;;;;;;;1.00;0.50;;;;;;;;;;5109887;28;20485;-20
2020/12/06 11:32:42;;;;;;;0.47;0.40;;;;;;;;;;5110128;28;20028;-20
2020/12/06 11:35:08;;;;;;;3.10;0.77;;;;;;;;;;5110241;28;20032;-22
2020/12/06 11:37:33;;;;;;;0.75;0.55;;;;;;;;;;5109704;28;20032;-20
2020/12/06 11:39:59;;;;;;;0.30;0.30;;;;;;;;;;5110202;28;20072;-21
2020/12/06 11:42:24;;;;;;;0.73;0.73;;;;;;;;;;5110062;28;20497;-19
2020/12/06 11:44:50;;;;;;;2.75;0.45;;;;;;;;;;5108072;28;20369;-20
2020/12/06 11:47:15;;;;;;;0.40;0.40;;;;;;;;;;5110457;28;20030;-20
2020/12/06 11:49:40;;;;;;;0.80;0.73;;;;;;;;;;5109861;28;20055;-18
2020/12/06 11:52:08;;;;;;;0.45;0.40;;;;;;;;;;5109306;28;20537;-20
2020/12/06 11:54:34;;;;;;;2.40;0.90;;;;;;;;;;5090196;28;20079;-21
2020/12/06 11:56:59;;;;;;;1.23;0.68;;;;;;;;;;5089086;28;20545;-19
2020/12/06 11:59:24;;;;;;;1.35;0.55;;;;;;;;;;5089134;28;20035;-20
2020/12/06 12:01:51;;;;;;;0.45;0.38;;;;;;;;;;5088103;28;20028;-19
2020/12/06 12:04:16;;;;;;;0.57;0.32;;;;;;;;;;5097194;28;20015;-20
2020/12/06 12:06:42;;;;;;;0.40;0.35;;;;;;;;;;5109785;28;20088;-20
2020/12/06 12:09:07;;;;;;;0.52;0.32;;;;;;;;;;5109642;28;20015;-19
2020/12/06 12:11:33;;;;;;;0.47;0.40;;;;;;;;;;5109798;28;20031;-19
2020/12/06 12:13:58;;;;;;;5.22;1.80;;;;;;;;;;5109656;28;20451;-19
2020/12/06 12:16:24;;;;;;;0.45;0.20;;;;;;;;;;5090795;28;20549;-20
2020/12/06 12:18:49;;;;;;;0.32;0.30;;;;;;;;;;5107689;28;20008;-19
2020/12/06 12:21:15;;;;;;;0.43;0.35;;;;;;;;;;5109384;28;20184;-19
2020/12/06 12:23:40;;;;;;;0.45;0.25;;;;;;;;;;5108261;28;20020;-22
2020/12/06 12:26:06;;;;;;;1.65;0.50;;;;;;;;;;5109893;28;20019;-19
2020/12/06 12:28:31;;;;;;;0.35;0.35;;;;;;;;;;5109604;28;20019;-23
2020/12/06 12:30:57;;;;;;;0.43;0.35;;;;;;;;;;5109777;28;20470;-21
2020/12/06 12:33:22;;;;;;;1.10;0.43;;;;;;;;;;5108269;28;20081;-20
2020/12/06 12:35:49;;;;;;;10.77;0.80;;;;;;;;;;5109798;28;20405;-19
2020/12/06 12:38:14;;;;;;;0.10;0.10;;;;;;;;;;5109695;28;20050;-20
2020/12/06 12:40:40;;;;;;;0.80;0.75;;;;;;;;;;5109183;28;20055;-20
2020/12/06 12:43:06;;;;;;;0.20;0.20;;;;;;;;;;5109598;28;20073;-19
2020/12/06 12:45:31;;;;;;;0.75;0.25;;;;;;;;;;5109246;28;20028;-19
2020/12/06 12:47:56;;;;;;;0.20;0.10;;;;;;;;;;5109239;28;20051;-27
2020/12/06 12:50:22;;;;;;;2.40;0.73;;;;;;;;;;5109123;28;20147;-21
2020/12/06 12:52:49;;;;;;;1.13;0.40;;;;;;;;;;5109048;28;20039;-20
2020/12/06 12:55:15;;;;;;;0.60;0.43;;;;;;;;;;5109425;28;20381;-21
2020/12/06 12:57:41;;;;;;;0.82;0.50;;;;;;;;;;5114179;28;20524;-20
2020/12/06 13:00:06;;;;;;;0.40;0.40;;;;;;;;;;5114228;28;20095;-20
2020/12/06 13:02:35;;;;;;;0.55;0.47;;;;;;;;;;5114143;28;20084;-21
2020/12/06 13:05:00;;;;;;;0.35;0.35;;;;;;;;;;5115836;27;20016;-20
2020/12/06 13:07:26;;;;;;;0.60;0.35;;;;;;;;;;5115781;28;20481;-20
2020/12/06 13:09:51;;;;;;;0.38;0.38;;;;;;;;;;5115578;27;20053;-21
2020/12/06 13:12:17;;;;;;;0.47;0.30;;;;;;;;;;5115931;27;20028;-20
2020/12/06 13:14:42;;;;;;;0.50;0.40;;;;;;;;;;5114382;28;20219;-20
2020/12/06 13:17:08;;;;;;;0.40;0.40;;;;;;;;;;5115868;27;20028;-20
2020/12/06 13:19:33;;;;;;;1.58;0.50;;;;;;;;;;5116509;28;20055;-21
2020/12/06 13:21:59;;;;;;;1.08;0.35;;;;;;;;;;5116410;28;20456;-19
2020/12/06 13:24:24;;;;;;;0.30;0.30;;;;;;;;;;5116345;27;20478;-21
2020/12/06 13:26:58;;;;;;;1.00;0.65;;;;;;;;;;5115764;28;20030;-19
2020/12/06 13:29:24;;;;;;;1.30;0.75;;;;;;;;;;5115769;28;20470;-19
2020/12/06 13:31:50;;;;;;;1.20;0.80;;;;;;;;;;5114629;28;20030;-20
2020/12/06 13:34:16;;;;;;;1.30;1.20;;;;;;;;;;5115738;27;20423;-21
2020/12/06 13:36:42;;;;;;;4.63;1.35;;;;;;;;;;5114451;28;20028;-19
2020/12/06 13:39:08;;;;;;;7.38;4.47;;;;;;;;;;5115994;27;20031;-18
2020/12/06 13:41:33;;;;;;;1.55;1.38;;;;;;;;;;5115528;28;20355;-21
2020/12/06 13:43:58;;;;;;;1.05;0.80;;;;;;;;;;5115910;28;20028;-20
2020/12/06 13:46:24;;;;;;;1.70;1.10;;;;;;;;;;5115657;27;20482;-21
2020/12/06 13:48:50;;;;;;;0.20;0.20;;;;;;;;;;5115512;28;20035;-22
2020/12/06 13:51:16;;;;;;;1.75;1.45;;;;;;;;;;5114814;27;20085;-22
2020/12/06 13:53:41;;;;;;;1.20;0.95;;;;;;;;;;5115058;27;20032;-21
2020/12/06 13:56:07;;;;;;;3.70;1.40;;;;;;;;;;5115057;27;20019;-23
2020/12/06 13:58:32;;;;;;;1.42;1.20;;;;;;;;;;5114671;28;20028;-22
2020/12/06 14:00:58;;;;;;;1.73;1.05;;;;;;;;;;5098274;27;20024;-23
2020/12/06 14:03:23;;;;;;;2.25;1.02;;;;;;;;;;5094649;28;20141;-20
2020/12/06 14:05:48;;;;;;;2.97;1.38;;;;;;;;;;5095260;28;20044;-20
2020/12/06 14:08:14;;;;;;;1.65;0.93;;;;;;;;;;5092726;28;20485;-20
2020/12/06 14:10:39;;;;;;;7.10;3.15;;;;;;;;;;5090442;28;20111;-21
2020/12/06 14:13:05;;;;;;;2.95;1.63;;;;;;;;;;5091890;28;20070;-20
2020/12/06 14:15:30;;;;;;;13.18;7.28;;;;;;;;;;5090118;28;20039;-19
2020/12/06 14:17:56;;;;;;;12.80;6.10;;;;;;;;;;5089708;28;20036;-20
2020/12/06 14:20:21;;;;;;;3.70;2.45;;;;;;;;;;5090007;28;20012;-20
2020/12/06 14:22:47;;;;;;;1.52;1.40;;;;;;;;;;5091460;28;20032;-17
2020/12/06 14:25:12;;;;;;;1.77;1.23;;;;;;;;;;5091525;28;20546;-19
2020/12/06 14:27:37;;;;;;;1.88;1.45;;;;;;;;;;5090522;28;20032;-21
2020/12/06 14:30:03;;;;;;;2.83;1.75;;;;;;;;;;5110237;28;20027;-21
2020/12/06 14:32:29;;;;;;;2.05;1.45;;;;;;;;;;5111637;28;20028;-21
2020/12/06 14:34:54;;;;;;;7.30;2.20;;;;;;;;;;5111400;28;20023;-19
2020/12/06 14:37:20;;;;;;;2.03;1.50;;;;;;;;;;5111233;28;20030;-21